Kiryat Shmone, Israel
Current Conditions -  °F | °C
As of 5:50 PM on Tuesday 21 Oct 2014 (Local Time) from LLHA Reporting Station
Clear Clear  
Wind Chill: 73°   Ceiling: Unl
Heat Index: 73°   Visibility: 6mi
Dew Point: 48°   Wind: 6mph
Humidity: 41%   Direction: 330°NNW
Pressure: 29.97"   Gusts: NA
Location:  33.18°N, 35.57°E
Report Text: LLHA 211450Z 33005KT 290V350 CAVOK 23/09 Q1015
Loading
Personal Weather Stations






























Interactive Weather Map
Tropical Storm Tracking
New forecast layout! Learn more

10-Day Weather Forecast

Advertisements
Track Severe Weather on mobile